sensor_id;sensor_type;location;lat;lon;timestamp;P1;durP1;ratioP1;P2;durP2;ratioP2
50803;SDS011;37205;51.434;6.756;2022-08-21T00:02:22;9.02;;;4.32;;
50803;SDS011;37205;51.434;6.756;2022-08-21T00:04:50;9.70;;;5.57;;
50803;SDS011;37205;51.434;6.756;2022-08-21T00:07:17;10.35;;;5.60;;
50803;SDS011;37205;51.434;6.756;2022-08-21T00:09:46;8.60;;;5.45;;
50803;SDS011;37205;51.434;6.756;2022-08-21T00:12:12;12.80;;;5.63;;
50803;SDS011;37205;51.434;6.756;2022-08-21T00:14:38;7.63;;;4.72;;
50803;SDS011;37205;51.434;6.756;2022-08-21T00:17:04;8.80;;;4.80;;
50803;SDS011;37205;51.434;6.756;2022-08-21T00:19:30;10.07;;;5.55;;
50803;SDS011;37205;51.434;6.756;2022-08-21T00:21:57;10.07;;;5.78;;
50803;SDS011;37205;51.434;6.756;2022-08-21T00:24:23;7.07;;;4.68;;
50803;SDS011;37205;51.434;6.756;2022-08-21T00:26:49;9.85;;;5.10;;
50803;SDS011;37205;51.434;6.756;2022-08-21T00:29:16;7.70;;;5.00;;
50803;SDS011;37205;51.434;6.756;2022-08-21T00:31:42;9.48;;;4.85;;
50803;SDS011;37205;51.434;6.756;2022-08-21T00:34:08;7.45;;;4.82;;
50803;SDS011;37205;51.434;6.756;2022-08-21T00:36:35;9.25;;;4.90;;
50803;SDS011;37205;51.434;6.756;2022-08-21T00:39:03;8.13;;;4.63;;
50803;SDS011;37205;51.434;6.756;2022-08-21T00:41:30;10.98;;;5.10;;
50803;SDS011;37205;51.434;6.756;2022-08-21T00:43:56;7.95;;;5.20;;
50803;SDS011;37205;51.434;6.756;2022-08-21T00:46:22;7.85;;;4.88;;
50803;SDS011;37205;51.434;6.756;2022-08-21T00:48:47;11.48;;;5.07;;
50803;SDS011;37205;51.434;6.756;2022-08-21T00:51:14;7.53;;;4.70;;
50803;SDS011;37205;51.434;6.756;2022-08-21T00:53:48;9.68;;;4.63;;
50803;SDS011;37205;51.434;6.756;2022-08-21T00:56:25;10.05;;;5.72;;
50803;SDS011;37205;51.434;6.756;2022-08-21T00:58:51;9.20;;;5.43;;
50803;SDS011;37205;51.434;6.756;2022-08-21T01:01:18;9.43;;;4.80;;
50803;SDS011;37205;51.434;6.756;2022-08-21T01:03:45;9.82;;;5.40;;
50803;SDS011;37205;51.434;6.756;2022-08-21T01:06:11;9.98;;;5.15;;
50803;SDS011;37205;51.434;6.756;2022-08-21T01:08:37;8.80;;;5.70;;
50803;SDS011;37205;51.434;6.756;2022-08-21T01:11:03;7.25;;;5.63;;
50803;SDS011;37205;51.434;6.756;2022-08-21T01:13:31;8.45;;;5.25;;
50803;SDS011;37205;51.434;6.756;2022-08-21T01:15:59;13.25;;;5.85;;
50803;SDS011;37205;51.434;6.756;2022-08-21T01:18:27;9.20;;;5.90;;
50803;SDS011;37205;51.434;6.756;2022-08-21T01:21:01;8.40;;;5.68;;
50803;SDS011;37205;51.434;6.756;2022-08-21T01:23:44;9.70;;;5.78;;
50803;SDS011;37205;51.434;6.756;2022-08-21T01:26:14;9.25;;;5.75;;
50803;SDS011;37205;51.434;6.756;2022-08-21T01:28:45;10.93;;;6.15;;
50803;SDS011;37205;51.434;6.756;2022-08-21T01:31:17;10.80;;;5.68;;
50803;SDS011;37205;51.434;6.756;2022-08-21T01:33:46;10.27;;;6.18;;
50803;SDS011;37205;51.434;6.756;2022-08-21T01:36:11;12.68;;;6.43;;
50803;SDS011;37205;51.434;6.756;2022-08-21T01:38:37;11.82;;;6.25;;
50803;SDS011;37205;51.434;6.756;2022-08-21T01:41:03;8.48;;;5.72;;
50803;SDS011;37205;51.434;6.756;2022-08-21T01:43:28;9.98;;;6.28;;
50803;SDS011;37205;51.434;6.756;2022-08-21T01:45:54;8.95;;;6.07;;
50803;SDS011;37205;51.434;6.756;2022-08-21T01:48:28;11.20;;;6.82;;
50803;SDS011;37205;51.434;6.756;2022-08-21T01:51:06;12.25;;;6.60;;
50803;SDS011;37205;51.434;6.756;2022-08-21T01:53:33;10.82;;;6.18;;
50803;SDS011;37205;51.434;6.756;2022-08-21T01:56:00;8.45;;;6.10;;
50803;SDS011;37205;51.434;6.756;2022-08-21T01:58:27;9.15;;;6.35;;
50803;SDS011;37205;51.434;6.756;2022-08-21T02:00:53;12.07;;;7.10;;
50803;SDS011;37205;51.434;6.756;2022-08-21T02:03:18;11.25;;;6.97;;
50803;SDS011;37205;51.434;6.756;2022-08-21T02:05:44;10.05;;;6.50;;
50803;SDS011;37205;51.434;6.756;2022-08-21T02:08:10;8.85;;;6.57;;
50803;SDS011;37205;51.434;6.756;2022-08-21T02:10:36;11.45;;;6.45;;
50803;SDS011;37205;51.434;6.756;2022-08-21T02:13:02;9.50;;;6.75;;
50803;SDS011;37205;51.434;6.756;2022-08-21T02:15:28;10.00;;;6.63;;
50803;SDS011;37205;51.434;6.756;2022-08-21T02:17:56;11.57;;;7.10;;
50803;SDS011;37205;51.434;6.756;2022-08-21T02:20:28;9.18;;;7.00;;
50803;SDS011;37205;51.434;6.756;2022-08-21T02:22:58;10.23;;;7.43;;
50803;SDS011;37205;51.434;6.756;2022-08-21T02:25:24;13.05;;;7.70;;
50803;SDS011;37205;51.434;6.756;2022-08-21T02:27:53;11.32;;;7.32;;
50803;SDS011;37205;51.434;6.756;2022-08-21T02:30:27;12.13;;;8.10;;
50803;SDS011;37205;51.434;6.756;2022-08-21T02:32:55;11.48;;;7.90;;
50803;SDS011;37205;51.434;6.756;2022-08-21T02:35:21;11.60;;;7.38;;
50803;SDS011;37205;51.434;6.756;2022-08-21T02:37:49;11.00;;;7.55;;
50803;SDS011;37205;51.434;6.756;2022-08-21T02:40:18;10.75;;;7.57;;
50803;SDS011;37205;51.434;6.756;2022-08-21T02:42:46;11.57;;;7.90;;
50803;SDS011;37205;51.434;6.756;2022-08-21T02:45:12;9.23;;;7.15;;
50803;SDS011;37205;51.434;6.756;2022-08-21T02:47:39;9.85;;;7.20;;
50803;SDS011;37205;51.434;6.756;2022-08-21T02:50:06;11.02;;;7.70;;
50803;SDS011;37205;51.434;6.756;2022-08-21T02:52:32;12.23;;;7.65;;
50803;SDS011;37205;51.434;6.756;2022-08-21T02:54:59;12.32;;;7.90;;
50803;SDS011;37205;51.434;6.756;2022-08-21T02:57:24;10.80;;;7.57;;
50803;SDS011;37205;51.434;6.756;2022-08-21T02:59:50;12.05;;;7.90;;
50803;SDS011;37205;51.434;6.756;2022-08-21T03:02:15;13.52;;;7.95;;
50803;SDS011;37205;51.434;6.756;2022-08-21T03:04:41;13.45;;;7.93;;
50803;SDS011;37205;51.434;6.756;2022-08-21T03:07:06;12.68;;;8.70;;
50803;SDS011;37205;51.434;6.756;2022-08-21T03:09:32;10.05;;;8.27;;
50803;SDS011;37205;51.434;6.756;2022-08-21T03:11:59;10.05;;;7.70;;
50803;SDS011;37205;51.434;6.756;2022-08-21T03:14:25;11.93;;;8.52;;
50803;SDS011;37205;51.434;6.756;2022-08-21T03:16:50;11.25;;;8.13;;
50803;SDS011;37205;51.434;6.756;2022-08-21T03:19:16;9.23;;;8.07;;
50803;SDS011;37205;51.434;6.756;2022-08-21T03:21:41;14.32;;;8.05;;
50803;SDS011;37205;51.434;6.756;2022-08-21T03:24:07;9.27;;;7.35;;
50803;SDS011;37205;51.434;6.756;2022-08-21T03:26:34;10.32;;;7.05;;
50803;SDS011;37205;51.434;6.756;2022-08-21T03:29:00;10.32;;;7.80;;
50803;SDS011;37205;51.434;6.756;2022-08-21T03:31:25;10.93;;;7.50;;
50803;SDS011;37205;51.434;6.756;2022-08-21T03:33:55;11.15;;;7.25;;
50803;SDS011;37205;51.434;6.756;2022-08-21T03:36:21;11.02;;;7.20;;
50803;SDS011;37205;51.434;6.756;2022-08-21T03:38:47;9.20;;;7.43;;
50803;SDS011;37205;51.434;6.756;2022-08-21T03:41:12;12.45;;;7.25;;
50803;SDS011;37205;51.434;6.756;2022-08-21T03:43:38;11.07;;;8.32;;
50803;SDS011;37205;51.434;6.756;2022-08-21T03:46:04;9.45;;;7.47;;
50803;SDS011;37205;51.434;6.756;2022-08-21T03:48:31;13.00;;;8.15;;
50803;SDS011;37205;51.434;6.756;2022-08-21T03:50:58;10.93;;;7.70;;
50803;SDS011;37205;51.434;6.756;2022-08-21T03:53:24;12.38;;;8.02;;
50803;SDS011;37205;51.434;6.756;2022-08-21T03:55:50;10.25;;;8.02;;
50803;SDS011;37205;51.434;6.756;2022-08-21T03:58:18;13.68;;;8.43;;
50803;SDS011;37205;51.434;6.756;2022-08-21T04:00:45;15.82;;;8.13;;
50803;SDS011;37205;51.434;6.756;2022-08-21T04:03:13;10.57;;;7.95;;
50803;SDS011;37205;51.434;6.756;2022-08-21T04:05:39;10.38;;;8.23;;
50803;SDS011;37205;51.434;6.756;2022-08-21T04:08:06;14.15;;;8.02;;
50803;SDS011;37205;51.434;6.756;2022-08-21T04:10:33;12.95;;;8.88;;
50803;SDS011;37205;51.434;6.756;2022-08-21T04:13:01;11.20;;;9.32;;
50803;SDS011;37205;51.434;6.756;2022-08-21T04:15:27;15.43;;;10.20;;
50803;SDS011;37205;51.434;6.756;2022-08-21T04:17:53;11.82;;;9.07;;
50803;SDS011;37205;51.434;6.756;2022-08-21T04:20:19;13.50;;;9.75;;
50803;SDS011;37205;51.434;6.756;2022-08-21T04:22:46;13.27;;;9.32;;
50803;SDS011;37205;51.434;6.756;2022-08-21T04:25:13;13.23;;;9.43;;
50803;SDS011;37205;51.434;6.756;2022-08-21T04:27:40;11.95;;;9.50;;
50803;SDS011;37205;51.434;6.756;2022-08-21T04:30:07;12.05;;;9.70;;
50803;SDS011;37205;51.434;6.756;2022-08-21T04:32:34;13.10;;;9.52;;
50803;SDS011;37205;51.434;6.756;2022-08-21T04:35:04;15.95;;;9.65;;
50803;SDS011;37205;51.434;6.756;2022-08-21T04:37:32;13.32;;;9.52;;
50803;SDS011;37205;51.434;6.756;2022-08-21T04:39:57;13.43;;;10.10;;
50803;SDS011;37205;51.434;6.756;2022-08-21T04:42:26;12.95;;;9.90;;
50803;SDS011;37205;51.434;6.756;2022-08-21T04:44:53;12.93;;;10.27;;
50803;SDS011;37205;51.434;6.756;2022-08-21T04:47:20;15.25;;;10.43;;
50803;SDS011;37205;51.434;6.756;2022-08-21T04:49:46;13.02;;;10.18;;
50803;SDS011;37205;51.434;6.756;2022-08-21T04:52:13;14.10;;;9.88;;
50803;SDS011;37205;51.434;6.756;2022-08-21T04:54:44;13.20;;;10.65;;
50803;SDS011;37205;51.434;6.756;2022-08-21T04:57:10;14.65;;;9.93;;
50803;SDS011;37205;51.434;6.756;2022-08-21T04:59:47;14.20;;;10.30;;
50803;SDS011;37205;51.434;6.756;2022-08-21T05:02:14;13.95;;;10.88;;
50803;SDS011;37205;51.434;6.756;2022-08-21T05:04:50;13.82;;;10.15;;
50803;SDS011;37205;51.434;6.756;2022-08-21T05:07:19;17.15;;;11.48;;
50803;SDS011;37205;51.434;6.756;2022-08-21T05:09:48;13.63;;;11.10;;
50803;SDS011;37205;51.434;6.756;2022-08-21T05:12:14;16.58;;;10.75;;
50803;SDS011;37205;51.434;6.756;2022-08-21T05:14:39;13.82;;;10.40;;
50803;SDS011;37205;51.434;6.756;2022-08-21T05:17:07;17.08;;;10.95;;
50803;SDS011;37205;51.434;6.756;2022-08-21T05:19:33;12.68;;;10.20;;
50803;SDS011;37205;51.434;6.756;2022-08-21T05:21:59;13.85;;;11.02;;
50803;SDS011;37205;51.434;6.756;2022-08-21T05:24:25;13.55;;;11.15;;
50803;SDS011;37205;51.434;6.756;2022-08-21T05:26:52;17.23;;;11.73;;
50803;SDS011;37205;51.434;6.756;2022-08-21T05:29:17;12.70;;;11.20;;
50803;SDS011;37205;51.434;6.756;2022-08-21T05:31:44;16.77;;;11.77;;
50803;SDS011;37205;51.434;6.756;2022-08-21T05:34:12;14.85;;;11.82;;
50803;SDS011;37205;51.434;6.756;2022-08-21T05:36:38;15.15;;;11.48;;
50803;SDS011;37205;51.434;6.756;2022-08-21T05:39:04;14.90;;;11.40;;
50803;SDS011;37205;51.434;6.756;2022-08-21T05:41:29;14.65;;;11.10;;
50803;SDS011;37205;51.434;6.756;2022-08-21T05:43:55;15.75;;;11.07;;
50803;SDS011;37205;51.434;6.756;2022-08-21T05:46:21;15.57;;;11.93;;
50803;SDS011;37205;51.434;6.756;2022-08-21T05:48:46;15.52;;;11.63;;
50803;SDS011;37205;51.434;6.756;2022-08-21T05:51:13;15.25;;;12.23;;
50803;SDS011;37205;51.434;6.756;2022-08-21T05:53:41;16.00;;;11.77;;
50803;SDS011;37205;51.434;6.756;2022-08-21T05:56:07;13.43;;;11.82;;
50803;SDS011;37205;51.434;6.756;2022-08-21T05:58:34;16.48;;;11.50;;
50803;SDS011;37205;51.434;6.756;2022-08-21T06:01:00;15.13;;;11.50;;
50803;SDS011;37205;51.434;6.756;2022-08-21T06:03:29;14.70;;;11.38;;
50803;SDS011;37205;51.434;6.756;2022-08-21T06:05:56;16.55;;;11.63;;
50803;SDS011;37205;51.434;6.756;2022-08-21T06:08:22;14.50;;;11.43;;
50803;SDS011;37205;51.434;6.756;2022-08-21T06:10:49;18.70;;;10.70;;
50803;SDS011;37205;51.434;6.756;2022-08-21T06:13:17;17.20;;;10.50;;
50803;SDS011;37205;51.434;6.756;2022-08-21T06:15:44;15.60;;;10.15;;
50803;SDS011;37205;51.434;6.756;2022-08-21T06:18:10;18.38;;;10.40;;
50803;SDS011;37205;51.434;6.756;2022-08-21T06:20:36;14.30;;;10.40;;
50803;SDS011;37205;51.434;6.756;2022-08-21T06:23:02;15.60;;;10.57;;
50803;SDS011;37205;51.434;6.756;2022-08-21T06:25:28;14.98;;;10.98;;
50803;SDS011;37205;51.434;6.756;2022-08-21T06:27:59;14.73;;;9.70;;
50803;SDS011;37205;51.434;6.756;2022-08-21T06:32:52;16.50;;;9.80;;
50803;SDS011;37205;51.434;6.756;2022-08-21T06:35:18;13.13;;;8.98;;
50803;SDS011;37205;51.434;6.756;2022-08-21T06:37:43;15.18;;;8.98;;
50803;SDS011;37205;51.434;6.756;2022-08-21T06:40:09;10.60;;;7.72;;
50803;SDS011;37205;51.434;6.756;2022-08-21T06:42:35;14.95;;;9.05;;
50803;SDS011;37205;51.434;6.756;2022-08-21T06:45:00;12.10;;;9.10;;
50803;SDS011;37205;51.434;6.756;2022-08-21T06:47:26;13.55;;;8.38;;
50803;SDS011;37205;51.434;6.756;2022-08-21T06:49:51;13.23;;;8.32;;
50803;SDS011;37205;51.434;6.756;2022-08-21T06:52:17;14.60;;;8.20;;
50803;SDS011;37205;51.434;6.756;2022-08-21T06:54:43;12.63;;;8.02;;
50803;SDS011;37205;51.434;6.756;2022-08-21T06:57:08;11.18;;;7.68;;
50803;SDS011;37205;51.434;6.756;2022-08-21T06:59:34;13.57;;;7.88;;
50803;SDS011;37205;51.434;6.756;2022-08-21T07:02:00;11.30;;;7.13;;
50803;SDS011;37205;51.434;6.756;2022-08-21T07:04:26;13.35;;;7.60;;
50803;SDS011;37205;51.434;6.756;2022-08-21T07:06:51;13.98;;;7.75;;
50803;SDS011;37205;51.434;6.756;2022-08-21T07:09:17;13.40;;;7.28;;
50803;SDS011;37205;51.434;6.756;2022-08-21T07:11:43;11.82;;;6.25;;
50803;SDS011;37205;51.434;6.756;2022-08-21T07:14:12;12.48;;;6.30;;
50803;SDS011;37205;51.434;6.756;2022-08-21T07:16:38;12.60;;;6.85;;
50803;SDS011;37205;51.434;6.756;2022-08-21T07:19:03;11.00;;;7.10;;
50803;SDS011;37205;51.434;6.756;2022-08-21T07:21:29;10.70;;;6.03;;
50803;SDS011;37205;51.434;6.756;2022-08-21T07:23:54;11.20;;;6.18;;
50803;SDS011;37205;51.434;6.756;2022-08-21T07:26:21;9.40;;;5.85;;
50803;SDS011;37205;51.434;6.756;2022-08-21T07:28:48;8.13;;;5.20;;
50803;SDS011;37205;51.434;6.756;2022-08-21T07:31:15;8.73;;;5.00;;
50803;SDS011;37205;51.434;6.756;2022-08-21T07:33:42;8.88;;;5.38;;
50803;SDS011;37205;51.434;6.756;2022-08-21T07:36:09;9.50;;;4.68;;
50803;SDS011;37205;51.434;6.756;2022-08-21T07:38:35;8.65;;;4.57;;
50803;SDS011;37205;51.434;6.756;2022-08-21T07:41:02;10.35;;;3.63;;
50803;SDS011;37205;51.434;6.756;2022-08-21T07:43:30;8.50;;;3.17;;
50803;SDS011;37205;51.434;6.756;2022-08-21T07:45:56;9.95;;;2.50;;
50803;SDS011;37205;51.434;6.756;2022-08-21T07:48:22;6.47;;;2.72;;
50803;SDS011;37205;51.434;6.756;2022-08-21T07:50:48;5.95;;;2.30;;
50803;SDS011;37205;51.434;6.756;2022-08-21T07:53:15;6.45;;;2.65;;
50803;SDS011;37205;51.434;6.756;2022-08-21T07:55:41;5.95;;;2.15;;
50803;SDS011;37205;51.434;6.756;2022-08-21T07:58:06;6.10;;;2.72;;
50803;SDS011;37205;51.434;6.756;2022-08-21T08:00:32;11.68;;;2.53;;
50803;SDS011;37205;51.434;6.756;2022-08-21T08:02:58;6.03;;;2.10;;
50803;SDS011;37205;51.434;6.756;2022-08-21T08:05:25;6.40;;;2.00;;
50803;SDS011;37205;51.434;6.756;2022-08-21T08:07:53;6.00;;;2.05;;
50803;SDS011;37205;51.434;6.756;2022-08-21T08:10:19;6.28;;;2.10;;
50803;SDS011;37205;51.434;6.756;2022-08-21T08:12:46;5.75;;;2.00;;
50803;SDS011;37205;51.434;6.756;2022-08-21T08:15:16;5.65;;;1.85;;
50803;SDS011;37205;51.434;6.756;2022-08-21T08:17:43;10.18;;;2.05;;
50803;SDS011;37205;51.434;6.756;2022-08-21T08:20:09;6.82;;;2.10;;
50803;SDS011;37205;51.434;6.756;2022-08-21T08:22:36;7.20;;;2.58;;
50803;SDS011;37205;51.434;6.756;2022-08-21T08:25:04;3.95;;;1.73;;
50803;SDS011;37205;51.434;6.756;2022-08-21T08:27:31;5.47;;;2.35;;
50803;SDS011;37205;51.434;6.756;2022-08-21T08:29:57;5.38;;;2.08;;
50803;SDS011;37205;51.434;6.756;2022-08-21T08:32:23;4.80;;;1.75;;
50803;SDS011;37205;51.434;6.756;2022-08-21T08:34:49;6.72;;;2.03;;
50803;SDS011;37205;51.434;6.756;2022-08-21T08:37:17;4.85;;;1.70;;
50803;SDS011;37205;51.434;6.756;2022-08-21T08:39:43;4.45;;;1.88;;
50803;SDS011;37205;51.434;6.756;2022-08-21T08:42:11;5.88;;;1.80;;
50803;SDS011;37205;51.434;6.756;2022-08-21T08:44:39;4.45;;;1.35;;
50803;SDS011;37205;51.434;6.756;2022-08-21T08:47:09;5.20;;;1.85;;
50803;SDS011;37205;51.434;6.756;2022-08-21T08:52:34;5.90;;;2.03;;
50803;SDS011;37205;51.434;6.756;2022-08-21T08:57:36;5.20;;;1.85;;
50803;SDS011;37205;51.434;6.756;2022-08-21T09:00:06;5.80;;;1.90;;
50803;SDS011;37205;51.434;6.756;2022-08-21T09:02:38;4.97;;;1.70;;
50803;SDS011;37205;51.434;6.756;2022-08-21T09:05:05;5.25;;;1.50;;
50803;SDS011;37205;51.434;6.756;2022-08-21T09:10:46;4.93;;;1.80;;
50803;SDS011;37205;51.434;6.756;2022-08-21T09:13:52;4.97;;;1.60;;
50803;SDS011;37205;51.434;6.756;2022-08-21T09:16:45;6.45;;;1.92;;
50803;SDS011;37205;51.434;6.756;2022-08-21T09:25:15;4.90;;;1.50;;
50803;SDS011;37205;51.434;6.756;2022-08-21T09:27:48;4.65;;;1.55;;
50803;SDS011;37205;51.434;6.756;2022-08-21T09:30:15;6.07;;;2.25;;
50803;SDS011;37205;51.434;6.756;2022-08-21T09:32:43;7.72;;;2.20;;
50803;SDS011;37205;51.434;6.756;2022-08-21T09:35:10;4.38;;;1.70;;
50803;SDS011;37205;51.434;6.756;2022-08-21T09:42:53;3.97;;;1.55;;
50803;SDS011;37205;51.434;6.756;2022-08-21T09:45:21;5.60;;;1.80;;
50803;SDS011;37205;51.434;6.756;2022-08-21T09:47:46;4.95;;;1.52;;
50803;SDS011;37205;51.434;6.756;2022-08-21T09:50:20;4.85;;;1.50;;
50803;SDS011;37205;51.434;6.756;2022-08-21T09:52:52;5.35;;;1.73;;
50803;SDS011;37205;51.434;6.756;2022-08-21T09:58:18;4.10;;;1.63;;
50803;SDS011;37205;51.434;6.756;2022-08-21T10:00:45;3.97;;;1.63;;
50803;SDS011;37205;51.434;6.756;2022-08-21T10:03:21;3.88;;;1.60;;
50803;SDS011;37205;51.434;6.756;2022-08-21T10:05:59;4.97;;;1.50;;
50803;SDS011;37205;51.434;6.756;2022-08-21T10:08:30;4.47;;;1.60;;
50803;SDS011;37205;51.434;6.756;2022-08-21T10:11:01;4.75;;;1.50;;
50803;SDS011;37205;51.434;6.756;2022-08-21T10:16:13;4.38;;;1.60;;
50803;SDS011;37205;51.434;6.756;2022-08-21T10:27:25;4.35;;;1.50;;
50803;SDS011;37205;51.434;6.756;2022-08-21T10:30:13;5.47;;;1.50;;
50803;SDS011;37205;51.434;6.756;2022-08-21T10:35:27;5.68;;;2.25;;
50803;SDS011;37205;51.434;6.756;2022-08-21T10:40:40;4.85;;;1.48;;
50803;SDS011;37205;51.434;6.756;2022-08-21T10:46:42;3.70;;;1.40;;
50803;SDS011;37205;51.434;6.756;2022-08-21T10:49:21;4.38;;;1.60;;
50803;SDS011;37205;51.434;6.756;2022-08-21T11:00:11;4.05;;;1.50;;
50803;SDS011;37205;51.434;6.756;2022-08-21T11:02:42;3.42;;;1.17;;
50803;SDS011;37205;51.434;6.756;2022-08-21T11:05:17;3.72;;;1.45;;
50803;SDS011;37205;51.434;6.756;2022-08-21T11:07:51;3.38;;;1.38;;
50803;SDS011;37205;51.434;6.756;2022-08-21T11:10:25;3.72;;;1.35;;
50803;SDS011;37205;51.434;6.756;2022-08-21T11:13:02;5.38;;;1.40;;
50803;SDS011;37205;51.434;6.756;2022-08-21T11:15:48;5.40;;;1.38;;
50803;SDS011;37205;51.434;6.756;2022-08-21T11:18:31;4.32;;;1.63;;
50803;SDS011;37205;51.434;6.756;2022-08-21T11:21:06;4.93;;;1.65;;
50803;SDS011;37205;51.434;6.756;2022-08-21T11:23:36;4.85;;;1.65;;
50803;SDS011;37205;51.434;6.756;2022-08-21T11:26:11;2.55;;;1.15;;
50803;SDS011;37205;51.434;6.756;2022-08-21T11:28:51;4.85;;;1.35;;
50803;SDS011;37205;51.434;6.756;2022-08-21T11:36:30;4.45;;;2.00;;
50803;SDS011;37205;51.434;6.756;2022-08-21T11:39:13;6.20;;;2.67;;
50803;SDS011;37205;51.434;6.756;2022-08-21T11:44:39;3.92;;;1.25;;
50803;SDS011;37205;51.434;6.756;2022-08-21T11:47:15;3.22;;;1.20;;
50803;SDS011;37205;51.434;6.756;2022-08-21T11:49:54;5.72;;;1.10;;
50803;SDS011;37205;51.434;6.756;2022-08-21T11:52:47;4.50;;;1.30;;
50803;SDS011;37205;51.434;6.756;2022-08-21T11:58:25;4.70;;;1.50;;
50803;SDS011;37205;51.434;6.756;2022-08-21T12:01:01;4.13;;;1.48;;
50803;SDS011;37205;51.434;6.756;2022-08-21T12:03:36;3.67;;;1.10;;
50803;SDS011;37205;51.434;6.756;2022-08-21T12:06:08;3.05;;;1.00;;
50803;SDS011;37205;51.434;6.756;2022-08-21T12:08:43;3.70;;;1.50;;
50803;SDS011;37205;51.434;6.756;2022-08-21T12:16:34;3.45;;;0.90;;
50803;SDS011;37205;51.434;6.756;2022-08-21T12:21:48;2.40;;;0.70;;
50803;SDS011;37205;51.434;6.756;2022-08-21T12:24:50;3.55;;;1.10;;
50803;SDS011;37205;51.434;6.756;2022-08-21T12:30:04;4.20;;;1.40;;
50803;SDS011;37205;51.434;6.756;2022-08-21T12:32:44;2.63;;;1.10;;
50803;SDS011;37205;51.434;6.756;2022-08-21T12:35:14;4.68;;;1.20;;
50803;SDS011;37205;51.434;6.756;2022-08-21T12:37:44;3.33;;;1.25;;
50803;SDS011;37205;51.434;6.756;2022-08-21T12:40:26;3.27;;;1.10;;
50803;SDS011;37205;51.434;6.756;2022-08-21T12:42:58;4.13;;;1.40;;
50803;SDS011;37205;51.434;6.756;2022-08-21T12:50:40;4.13;;;1.40;;
50803;SDS011;37205;51.434;6.756;2022-08-21T12:55:35;3.47;;;1.10;;
50803;SDS011;37205;51.434;6.756;2022-08-21T12:58:06;5.47;;;1.80;;
50803;SDS011;37205;51.434;6.756;2022-08-21T13:00:44;3.83;;;1.50;;
50803;SDS011;37205;51.434;6.756;2022-08-21T13:03:14;3.13;;;1.13;;
50803;SDS011;37205;51.434;6.756;2022-08-21T13:05:40;5.05;;;1.35;;
50803;SDS011;37205;51.434;6.756;2022-08-21T13:08:06;6.13;;;1.88;;
50803;SDS011;37205;51.434;6.756;2022-08-21T13:10:35;3.80;;;1.33;;
50803;SDS011;37205;51.434;6.756;2022-08-21T13:13:06;5.10;;;1.50;;
50803;SDS011;37205;51.434;6.756;2022-08-21T13:15:46;5.03;;;1.42;;
50803;SDS011;37205;51.434;6.756;2022-08-21T13:18:22;8.27;;;1.35;;
50803;SDS011;37205;51.434;6.756;2022-08-21T13:20:49;5.25;;;1.40;;
50803;SDS011;37205;51.434;6.756;2022-08-21T13:23:21;3.92;;;1.10;;
50803;SDS011;37205;51.434;6.756;2022-08-21T13:25:49;6.15;;;1.48;;
50803;SDS011;37205;51.434;6.756;2022-08-21T13:28:14;5.88;;;2.80;;
50803;SDS011;37205;51.434;6.756;2022-08-21T13:30:58;9.13;;;7.45;;
50803;SDS011;37205;51.434;6.756;2022-08-21T13:33:26;4.38;;;1.10;;
50803;SDS011;37205;51.434;6.756;2022-08-21T13:38:25;3.67;;;1.13;;
50803;SDS011;37205;51.434;6.756;2022-08-21T13:41:05;3.45;;;1.30;;
50803;SDS011;37205;51.434;6.756;2022-08-21T13:43:44;3.85;;;1.20;;
50803;SDS011;37205;51.434;6.756;2022-08-21T13:46:12;6.13;;;1.40;;
50803;SDS011;37205;51.434;6.756;2022-08-21T13:48:39;3.63;;;1.13;;
50803;SDS011;37205;51.434;6.756;2022-08-21T13:51:06;4.22;;;1.48;;
50803;SDS011;37205;51.434;6.756;2022-08-21T13:56:07;4.50;;;1.40;;
50803;SDS011;37205;51.434;6.756;2022-08-21T13:58:43;4.30;;;1.77;;
50803;SDS011;37205;51.434;6.756;2022-08-21T14:01:19;4.63;;;1.30;;
50803;SDS011;37205;51.434;6.756;2022-08-21T14:03:55;3.92;;;1.45;;
50803;SDS011;37205;51.434;6.756;2022-08-21T14:06:27;5.32;;;1.27;;
50803;SDS011;37205;51.434;6.756;2022-08-21T14:09:07;3.92;;;1.20;;
50803;SDS011;37205;51.434;6.756;2022-08-21T14:11:54;4.13;;;1.20;;
50803;SDS011;37205;51.434;6.756;2022-08-21T14:16:57;4.50;;;1.70;;
50803;SDS011;37205;51.434;6.756;2022-08-21T14:19:26;4.30;;;1.30;;
50803;SDS011;37205;51.434;6.756;2022-08-21T14:22:00;3.88;;;1.63;;
50803;SDS011;37205;51.434;6.756;2022-08-21T14:24:28;5.50;;;1.73;;
50803;SDS011;37205;51.434;6.756;2022-08-21T14:27:02;5.20;;;1.60;;
50803;SDS011;37205;51.434;6.756;2022-08-21T14:29:39;4.65;;;2.33;;
50803;SDS011;37205;51.434;6.756;2022-08-21T14:32:13;4.63;;;1.92;;
50803;SDS011;37205;51.434;6.756;2022-08-21T14:34:44;5.78;;;1.60;;
50803;SDS011;37205;51.434;6.756;2022-08-21T14:37:10;4.72;;;1.77;;
50803;SDS011;37205;51.434;6.756;2022-08-21T14:39:35;3.85;;;1.60;;
50803;SDS011;37205;51.434;6.756;2022-08-21T14:42:01;3.42;;;1.33;;
50803;SDS011;37205;51.434;6.756;2022-08-21T14:44:27;4.10;;;1.65;;
50803;SDS011;37205;51.434;6.756;2022-08-21T14:46:56;4.32;;;1.50;;
50803;SDS011;37205;51.434;6.756;2022-08-21T14:49:22;5.53;;;1.90;;
50803;SDS011;37205;51.434;6.756;2022-08-21T14:51:51;3.90;;;1.42;;
50803;SDS011;37205;51.434;6.756;2022-08-21T14:54:21;5.68;;;1.58;;
50803;SDS011;37205;51.434;6.756;2022-08-21T14:56:48;5.13;;;1.88;;
50803;SDS011;37205;51.434;6.756;2022-08-21T14:59:17;5.25;;;3.33;;
50803;SDS011;37205;51.434;6.756;2022-08-21T15:01:44;3.55;;;1.15;;
50803;SDS011;37205;51.434;6.756;2022-08-21T15:04:10;3.78;;;1.50;;
50803;SDS011;37205;51.434;6.756;2022-08-21T15:06:36;4.40;;;1.42;;
50803;SDS011;37205;51.434;6.756;2022-08-21T15:09:01;4.88;;;1.58;;
50803;SDS011;37205;51.434;6.756;2022-08-21T15:11:32;5.85;;;1.55;;
50803;SDS011;37205;51.434;6.756;2022-08-21T15:14:00;3.70;;;1.33;;
50803;SDS011;37205;51.434;6.756;2022-08-21T15:16:28;3.63;;;1.40;;
50803;SDS011;37205;51.434;6.756;2022-08-21T15:18:55;4.53;;;1.40;;
50803;SDS011;37205;51.434;6.756;2022-08-21T15:21:23;4.35;;;1.20;;
50803;SDS011;37205;51.434;6.756;2022-08-21T15:23:49;7.22;;;1.88;;
50803;SDS011;37205;51.434;6.756;2022-08-21T15:26:14;6.65;;;1.67;;
50803;SDS011;37205;51.434;6.756;2022-08-21T15:28:41;5.40;;;1.80;;
50803;SDS011;37205;51.434;6.756;2022-08-21T15:31:07;4.65;;;1.50;;
50803;SDS011;37205;51.434;6.756;2022-08-21T15:33:33;4.28;;;1.48;;
50803;SDS011;37205;51.434;6.756;2022-08-21T15:35:58;4.80;;;1.70;;
50803;SDS011;37205;51.434;6.756;2022-08-21T15:38:24;4.03;;;1.50;;
50803;SDS011;37205;51.434;6.756;2022-08-21T15:40:53;4.28;;;1.40;;
50803;SDS011;37205;51.434;6.756;2022-08-21T15:43:25;3.72;;;1.48;;
50803;SDS011;37205;51.434;6.756;2022-08-21T15:45:53;4.45;;;1.80;;
50803;SDS011;37205;51.434;6.756;2022-08-21T15:48:19;3.00;;;1.08;;
50803;SDS011;37205;51.434;6.756;2022-08-21T15:50:45;5.00;;;1.40;;
50803;SDS011;37205;51.434;6.756;2022-08-21T15:53:11;3.75;;;1.40;;
50803;SDS011;37205;51.434;6.756;2022-08-21T15:55:37;7.10;;;1.83;;
50803;SDS011;37205;51.434;6.756;2022-08-21T15:58:04;3.97;;;1.75;;
50803;SDS011;37205;51.434;6.756;2022-08-21T16:00:31;5.05;;;1.17;;
50803;SDS011;37205;51.434;6.756;2022-08-21T16:03:00;3.45;;;1.42;;
50803;SDS011;37205;51.434;6.756;2022-08-21T16:05:29;4.32;;;1.40;;
50803;SDS011;37205;51.434;6.756;2022-08-21T16:07:56;3.88;;;1.45;;
50803;SDS011;37205;51.434;6.756;2022-08-21T16:10:23;5.18;;;1.40;;
50803;SDS011;37205;51.434;6.756;2022-08-21T16:12:58;5.15;;;1.63;;
50803;SDS011;37205;51.434;6.756;2022-08-21T16:15:28;3.55;;;1.20;;
50803;SDS011;37205;51.434;6.756;2022-08-21T16:17:54;5.25;;;1.40;;
50803;SDS011;37205;51.434;6.756;2022-08-21T16:20:24;4.03;;;1.50;;
50803;SDS011;37205;51.434;6.756;2022-08-21T16:22:52;4.10;;;1.60;;